createdAt,value
2018-12-16T00:00:31.201Z,993.56
2018-12-16T00:01:31.287Z,993.56
2018-12-16T00:02:31.374Z,993.52
2018-12-16T00:03:31.461Z,993.46
2018-12-16T00:04:31.548Z,993.46
2018-12-16T00:05:31.634Z,993.41
2018-12-16T00:06:31.722Z,993.40
2018-12-16T00:07:31.808Z,993.42
2018-12-16T00:08:31.893Z,993.36
2018-12-16T00:09:31.978Z,993.31
2018-12-16T00:10:32.062Z,993.31
2018-12-16T00:11:32.149Z,993.30
2018-12-16T00:12:32.238Z,993.31
2018-12-16T00:13:32.318Z,993.28
2018-12-16T00:14:32.403Z,993.26
2018-12-16T00:15:32.488Z,993.21
2018-12-16T00:16:32.575Z,993.20
2018-12-16T00:17:32.659Z,993.11
2018-12-16T00:18:32.747Z,993.15
2018-12-16T00:19:32.835Z,993.10
2018-12-16T00:20:32.918Z,993.14
2018-12-16T00:21:33.002Z,993.11
2018-12-16T00:22:33.086Z,993.08
2018-12-16T00:23:33.178Z,993.13
2018-12-16T00:24:33.261Z,993.19
2018-12-16T00:25:33.345Z,993.20
2018-12-16T00:26:33.428Z,993.20
2018-12-16T00:27:33.514Z,993.27
2018-12-16T00:28:33.597Z,993.24
2018-12-16T00:29:33.683Z,993.18
2018-12-16T00:30:33.769Z,993.24
2018-12-16T00:31:33.853Z,993.22
2018-12-16T00:32:33.939Z,993.18
2018-12-16T00:33:34.024Z,993.22
2018-12-16T00:34:34.111Z,993.29
2018-12-16T00:35:34.207Z,993.35
2018-12-16T00:36:34.289Z,993.32
2018-12-16T00:37:34.374Z,993.35
2018-12-16T00:38:34.461Z,993.31
2018-12-16T00:39:34.543Z,993.29
2018-12-16T00:40:34.626Z,993.33
2018-12-16T00:41:34.716Z,993.26
2018-12-16T00:42:34.803Z,993.23
2018-12-16T00:43:34.889Z,993.30
2018-12-16T00:44:34.977Z,993.21
2018-12-16T00:45:35.059Z,993.25
2018-12-16T00:46:35.145Z,993.19
2018-12-16T00:47:35.230Z,993.17
2018-12-16T00:48:35.315Z,993.16
2018-12-16T00:49:35.403Z,993.11
2018-12-16T00:50:35.486Z,993.06
2018-12-16T00:51:35.567Z,993.04
2018-12-16T00:52:36.611Z,992.94
2018-12-16T00:53:35.747Z,992.89
2018-12-16T00:54:35.826Z,992.86
2018-12-16T00:55:35.910Z,992.78
2018-12-16T00:56:35.999Z,992.76
2018-12-16T00:57:36.081Z,992.70
2018-12-16T00:58:36.169Z,992.71
2018-12-16T00:59:36.256Z,992.63
2018-12-16T01:00:36.339Z,992.62
2018-12-16T01:01:36.430Z,992.58
2018-12-16T01:02:36.514Z,992.51
2018-12-16T01:03:36.593Z,992.46
2018-12-16T01:04:36.683Z,992.47
2018-12-16T01:05:36.779Z,992.51
2018-12-16T01:06:36.860Z,992.57
2018-12-16T01:07:36.944Z,992.57
2018-12-16T01:08:37.032Z,992.58
2018-12-16T01:09:37.119Z,992.60
2018-12-16T01:10:37.200Z,992.57
2018-12-16T01:11:37.293Z,992.53
2018-12-16T01:12:37.376Z,992.55
2018-12-16T01:13:37.461Z,992.57
2018-12-16T01:14:37.543Z,992.58
2018-12-16T01:15:37.633Z,992.60
2018-12-16T01:16:37.718Z,992.60
2018-12-16T01:17:37.796Z,992.59
2018-12-16T01:18:37.876Z,992.61
2018-12-16T01:19:37.961Z,992.59
2018-12-16T01:20:38.047Z,992.62
2018-12-16T01:21:38.122Z,992.57
2018-12-16T01:22:43.377Z,992.61
2018-12-16T01:23:38.294Z,992.58
2018-12-16T01:24:38.379Z,992.57
2018-12-16T01:25:38.464Z,992.55
2018-12-16T01:26:38.550Z,992.56
2018-12-16T01:27:38.627Z,992.58
2018-12-16T01:28:38.711Z,992.52
2018-12-16T01:29:38.798Z,992.56
2018-12-16T01:30:38.886Z,992.49
2018-12-16T01:31:38.968Z,992.54
2018-12-16T01:32:39.056Z,992.59
2018-12-16T01:33:39.140Z,992.53
2018-12-16T01:34:39.226Z,992.52
2018-12-16T01:35:39.321Z,992.46
2018-12-16T01:36:39.391Z,992.47
2018-12-16T01:37:39.475Z,992.50
2018-12-16T01:38:39.559Z,992.49
2018-12-16T01:39:39.641Z,992.47
2018-12-16T01:40:39.730Z,992.42
2018-12-16T01:41:39.812Z,992.43
2018-12-16T01:42:39.895Z,992.39
2018-12-16T01:43:39.981Z,992.38
2018-12-16T01:44:40.066Z,992.38
2018-12-16T01:45:40.151Z,992.37
2018-12-16T01:46:40.234Z,992.39
2018-12-16T01:47:40.321Z,992.43
2018-12-16T01:48:40.407Z,992.47
2018-12-16T01:49:40.490Z,992.49
2018-12-16T01:50:40.575Z,992.45
2018-12-16T01:51:40.656Z,992.46
2018-12-16T01:52:40.739Z,992.42
2018-12-16T01:53:40.825Z,992.44
2018-12-16T01:54:40.910Z,992.41
2018-12-16T01:55:40.995Z,992.40
2018-12-16T01:56:41.081Z,992.41
2018-12-16T01:57:41.168Z,992.39
2018-12-16T01:58:41.250Z,992.39
2018-12-16T01:59:41.337Z,992.33
2018-12-16T02:00:41.422Z,992.33
2018-12-16T02:01:41.511Z,992.37
2018-12-16T02:02:41.595Z,992.36
2018-12-16T02:03:41.680Z,992.34
2018-12-16T02:04:41.765Z,992.31
2018-12-16T02:05:41.848Z,992.25
2018-12-16T02:06:41.935Z,992.27
2018-12-16T02:07:42.022Z,992.29
2018-12-16T02:08:42.106Z,992.28
2018-12-16T02:09:42.194Z,992.30
2018-12-16T02:10:42.278Z,992.29
2018-12-16T02:11:42.363Z,992.32
2018-12-16T02:12:42.452Z,992.37
2018-12-16T02:13:42.535Z,992.36
2018-12-16T02:14:42.620Z,992.36
2018-12-16T02:15:42.707Z,992.34
2018-12-16T02:16:42.788Z,992.35
2018-12-16T02:17:42.876Z,992.33
2018-12-16T02:18:42.962Z,992.36
2018-12-16T02:19:43.043Z,992.31
2018-12-16T02:20:43.129Z,992.31
2018-12-16T02:21:43.212Z,992.30
2018-12-16T02:22:43.296Z,992.30
2018-12-16T02:23:43.380Z,992.27
2018-12-16T02:24:43.465Z,992.28
2018-12-16T02:25:43.554Z,992.30
2018-12-16T02:26:43.647Z,992.28
2018-12-16T02:27:43.728Z,992.24
2018-12-16T02:28:43.812Z,992.24
2018-12-16T02:29:43.898Z,992.24
2018-12-16T02:30:43.984Z,992.27
2018-12-16T02:31:44.070Z,992.27
2018-12-16T02:32:44.155Z,992.26
2018-12-16T02:33:44.238Z,992.27
2018-12-16T02:34:44.327Z,992.24
2018-12-16T02:35:44.407Z,992.23
2018-12-16T02:36:44.494Z,992.22
2018-12-16T02:37:44.597Z,992.18
2018-12-16T02:38:44.662Z,992.15
2018-12-16T02:39:44.745Z,992.11
2018-12-16T02:40:44.832Z,992.13
2018-12-16T02:41:44.918Z,992.11
2018-12-16T02:42:45.007Z,992.08
2018-12-16T02:43:45.093Z,992.06
2018-12-16T02:44:45.179Z,992.06
2018-12-16T02:45:45.261Z,992.02
2018-12-16T02:46:45.348Z,992.05
2018-12-16T02:47:45.431Z,992.03
2018-12-16T02:48:45.517Z,991.99
2018-12-16T02:49:45.602Z,991.97
2018-12-16T02:50:45.693Z,992.00
2018-12-16T02:51:45.771Z,991.95
2018-12-16T02:52:45.854Z,991.93
2018-12-16T02:53:45.937Z,991.90
2018-12-16T02:54:46.026Z,991.93
2018-12-16T02:55:46.109Z,991.90
2018-12-16T02:56:46.208Z,991.90
2018-12-16T02:57:46.370Z,991.90
2018-12-16T02:58:46.369Z,991.88
2018-12-16T02:59:46.452Z,991.84
2018-12-16T03:00:46.549Z,991.86
2018-12-16T03:01:46.627Z,991.82
2018-12-16T03:02:46.712Z,991.80
2018-12-16T03:03:46.792Z,991.77
2018-12-16T03:04:46.877Z,991.81
2018-12-16T03:05:46.962Z,991.85
2018-12-16T03:06:47.052Z,991.81
2018-12-16T03:07:47.137Z,991.75
2018-12-16T03:08:47.222Z,991.73
2018-12-16T03:09:47.313Z,991.74
2018-12-16T03:10:47.395Z,991.69
2018-12-16T03:11:47.486Z,991.72
2018-12-16T03:12:47.574Z,991.65
2018-12-16T03:13:47.651Z,991.60
2018-12-16T03:14:47.737Z,991.61
2018-12-16T03:15:47.823Z,991.58
2018-12-16T03:16:47.913Z,991.57
2018-12-16T03:17:47.998Z,991.57
2018-12-16T03:18:48.083Z,991.52
2018-12-16T03:19:48.169Z,991.49
2018-12-16T03:20:48.256Z,991.49
2018-12-16T03:21:48.331Z,991.46
2018-12-16T03:22:48.421Z,991.40
2018-12-16T03:23:48.502Z,991.38
2018-12-16T03:24:48.593Z,991.33
2018-12-16T03:25:48.740Z,991.31
2018-12-16T03:26:48.760Z,991.26
2018-12-16T03:27:48.842Z,991.23
2018-12-16T03:28:48.933Z,991.19
2018-12-16T03:29:49.022Z,991.15
2018-12-16T03:30:49.119Z,991.17
2018-12-16T03:31:49.199Z,991.12
2018-12-16T03:32:49.279Z,991.09
2018-12-16T03:33:49.365Z,991.07
2018-12-16T03:34:49.453Z,990.97
2018-12-16T03:35:49.537Z,990.98
2018-12-16T03:36:49.619Z,990.94
2018-12-16T03:37:49.709Z,990.87
2018-12-16T03:38:49.793Z,990.82
2018-12-16T03:39:49.877Z,990.81
2018-12-16T03:40:49.966Z,990.77
2018-12-16T03:41:50.051Z,990.72
2018-12-16T03:42:50.137Z,990.71
2018-12-16T03:43:50.227Z,990.73
2018-12-16T03:44:50.308Z,990.71
2018-12-16T03:45:50.397Z,990.69
2018-12-16T03:46:50.481Z,990.70
2018-12-16T03:47:50.567Z,990.75
2018-12-16T03:48:50.686Z,990.75
2018-12-16T03:49:50.768Z,990.73
2018-12-16T03:50:50.857Z,990.72
2018-12-16T03:51:50.951Z,990.69
2018-12-16T03:52:51.031Z,990.71
2018-12-16T03:53:51.116Z,990.73
2018-12-16T03:54:51.202Z,990.69
2018-12-16T03:55:51.286Z,990.68
2018-12-16T03:56:51.372Z,990.68
2018-12-16T03:57:51.459Z,990.64
2018-12-16T03:58:51.546Z,990.66
2018-12-16T03:59:51.632Z,990.60
2018-12-16T04:00:51.716Z,990.63
2018-12-16T04:01:51.802Z,990.60
2018-12-16T04:02:51.888Z,990.57
2018-12-16T04:03:51.974Z,990.52
2018-12-16T04:04:52.060Z,990.46
2018-12-16T04:05:52.146Z,990.48
2018-12-16T04:06:52.229Z,990.39
2018-12-16T04:07:52.316Z,990.36
2018-12-16T04:08:52.401Z,990.33
2018-12-16T04:09:52.488Z,990.30
2018-12-16T04:10:52.575Z,990.30
2018-12-16T04:11:52.664Z,990.29
2018-12-16T04:12:52.751Z,990.31
2018-12-16T04:13:52.835Z,990.21
2018-12-16T04:14:52.919Z,990.19
2018-12-16T04:15:53.002Z,990.17
2018-12-16T04:16:53.090Z,990.14
2018-12-16T04:17:53.177Z,990.16
2018-12-16T04:18:53.260Z,990.15
2018-12-16T04:19:53.345Z,990.17
2018-12-16T04:20:53.436Z,990.15
2018-12-16T04:21:53.525Z,990.13
2018-12-16T04:22:53.608Z,990.16
2018-12-16T04:23:53.697Z,990.14
2018-12-16T04:24:53.782Z,990.18
2018-12-16T04:25:53.867Z,990.14
2018-12-16T04:26:53.955Z,990.10
2018-12-16T04:27:54.039Z,990.15
2018-12-16T04:28:54.123Z,990.14
2018-12-16T04:29:54.212Z,990.11
2018-12-16T04:30:54.317Z,990.16
2018-12-16T04:31:54.388Z,990.07
2018-12-16T04:32:54.473Z,990.05
2018-12-16T04:33:54.558Z,990.08
2018-12-16T04:34:54.644Z,990.05
2018-12-16T04:35:54.728Z,990.05
2018-12-16T04:36:54.813Z,990.04
2018-12-16T04:37:54.912Z,990.02
2018-12-16T04:38:54.985Z,989.94
2018-12-16T04:39:55.073Z,989.92
2018-12-16T04:40:55.153Z,989.94
2018-12-16T04:41:55.238Z,989.89
2018-12-16T04:42:55.323Z,989.81
2018-12-16T04:43:55.408Z,989.73
2018-12-16T04:44:55.496Z,989.70
2018-12-16T04:45:55.581Z,989.69
2018-12-16T04:46:55.663Z,989.68
2018-12-16T04:47:55.747Z,989.63
2018-12-16T04:48:55.833Z,989.65
2018-12-16T04:49:55.922Z,989.65
2018-12-16T04:50:56.003Z,989.62
2018-12-16T04:51:56.089Z,989.59
2018-12-16T04:52:56.176Z,989.58
2018-12-16T04:53:56.260Z,989.52
2018-12-16T04:54:56.345Z,989.45
2018-12-16T04:55:56.432Z,989.42
2018-12-16T04:56:56.517Z,989.40
2018-12-16T04:57:56.606Z,989.34
2018-12-16T04:58:56.698Z,989.33
2018-12-16T04:59:56.777Z,989.37
2018-12-16T05:00:56.864Z,989.37
2018-12-16T05:01:56.952Z,989.39
2018-12-16T05:02:57.036Z,989.40
2018-12-16T05:03:57.126Z,989.43
2018-12-16T05:04:57.212Z,989.39
2018-12-16T05:05:57.300Z,989.46
2018-12-16T05:06:57.387Z,989.49
2018-12-16T05:07:57.477Z,989.50
2018-12-16T05:08:57.557Z,989.49
2018-12-16T05:09:57.644Z,989.43
2018-12-16T05:10:57.732Z,989.43
2018-12-16T05:11:57.817Z,989.42
2018-12-16T05:12:57.905Z,989.41
2018-12-16T05:13:57.991Z,989.38
2018-12-16T05:14:58.149Z,989.39
2018-12-16T05:15:58.161Z,989.39
2018-12-16T05:16:58.247Z,989.36
2018-12-16T05:17:58.338Z,989.37
2018-12-16T05:18:58.421Z,989.37
2018-12-16T05:19:58.507Z,989.37
2018-12-16T05:20:58.594Z,989.35
2018-12-16T05:21:58.678Z,989.33
2018-12-16T05:22:58.767Z,989.35
2018-12-16T05:23:58.859Z,989.33
2018-12-16T05:24:58.943Z,989.40
2018-12-16T05:25:59.035Z,989.43
2018-12-16T05:26:59.115Z,989.45
2018-12-16T05:27:59.198Z,989.46
2018-12-16T05:28:59.284Z,989.46
2018-12-16T05:29:59.373Z,989.49
2018-12-16T05:30:59.457Z,989.46
2018-12-16T05:31:59.543Z,989.43
2018-12-16T05:32:59.629Z,989.37
2018-12-16T05:33:59.715Z,989.28
2018-12-16T05:34:59.819Z,989.26
2018-12-16T05:35:59.906Z,989.24
2018-12-16T05:36:59.990Z,989.20
2018-12-16T05:38:00.079Z,989.15
2018-12-16T05:39:00.166Z,989.18
2018-12-16T05:40:00.251Z,989.18
2018-12-16T05:41:00.336Z,989.17
2018-12-16T05:42:00.428Z,989.19
2018-12-16T05:43:00.509Z,989.23
2018-12-16T05:44:00.593Z,989.21
2018-12-16T05:45:00.686Z,989.27
2018-12-16T05:46:00.766Z,989.29
2018-12-16T05:47:00.850Z,989.31
2018-12-16T05:48:00.938Z,989.28
2018-12-16T05:49:01.022Z,989.33
2018-12-16T05:50:01.109Z,989.39
2018-12-16T05:51:01.194Z,989.35
2018-12-16T05:52:01.280Z,989.35
2018-12-16T05:53:01.365Z,989.35
2018-12-16T05:54:01.452Z,989.33
2018-12-16T05:55:01.540Z,989.33
2018-12-16T05:56:01.627Z,989.33
2018-12-16T05:57:01.713Z,989.33
2018-12-16T05:58:01.794Z,989.36
2018-12-16T05:59:01.879Z,989.31
2018-12-16T06:00:01.968Z,989.29
2018-12-16T06:01:02.051Z,989.27
2018-12-16T06:02:02.139Z,989.24
2018-12-16T06:03:02.224Z,989.18
2018-12-16T06:04:02.309Z,989.17
2018-12-16T06:05:02.396Z,989.17
2018-12-16T06:06:02.484Z,989.15
2018-12-16T06:07:02.570Z,989.08
2018-12-16T06:08:02.658Z,989.08
2018-12-16T06:09:02.744Z,989.04
2018-12-16T06:10:02.833Z,989.04
2018-12-16T06:11:02.915Z,989.01
2018-12-16T06:12:03.010Z,988.98
2018-12-16T06:13:03.087Z,989.01
2018-12-16T06:14:03.173Z,989.03
2018-12-16T06:15:03.259Z,989.04
2018-12-16T06:16:03.347Z,989.09
2018-12-16T06:17:03.431Z,989.08
2018-12-16T06:18:03.526Z,989.06
2018-12-16T06:19:03.607Z,989.07
2018-12-16T06:20:03.690Z,989.09
2018-12-16T06:21:03.777Z,989.05
2018-12-16T06:22:03.862Z,989.08
2018-12-16T06:23:03.950Z,989.06
2018-12-16T06:24:04.042Z,989.04
2018-12-16T06:25:04.123Z,989.00
2018-12-16T06:26:04.206Z,989.00
2018-12-16T06:27:04.292Z,988.97
2018-12-16T06:28:04.378Z,989.01
2018-12-16T06:29:04.464Z,988.98
2018-12-16T06:30:04.554Z,989.06
2018-12-16T06:31:04.635Z,989.04
2018-12-16T06:32:04.729Z,989.04
2018-12-16T06:33:04.808Z,988.91
2018-12-16T06:34:04.895Z,988.89
2018-12-16T06:35:04.979Z,988.90
2018-12-16T06:36:05.062Z,988.90
2018-12-16T06:37:05.146Z,988.87
2018-12-16T06:38:05.246Z,988.87
2018-12-16T06:39:05.311Z,988.89
2018-12-16T06:40:05.397Z,988.86
2018-12-16T06:41:05.483Z,988.85
2018-12-16T06:42:05.564Z,988.85
2018-12-16T06:43:05.649Z,988.87
2018-12-16T06:44:05.735Z,988.89
2018-12-16T06:45:05.822Z,988.93
2018-12-16T06:46:05.909Z,988.93
2018-12-16T06:47:05.996Z,988.96
2018-12-16T06:48:06.081Z,988.96
2018-12-16T06:49:06.167Z,988.99
2018-12-16T06:50:06.255Z,989.06
2018-12-16T06:51:06.342Z,989.05
2018-12-16T06:52:06.425Z,989.00
2018-12-16T06:53:06.512Z,988.98
2018-12-16T06:54:06.591Z,988.87
2018-12-16T06:55:06.680Z,988.86
2018-12-16T06:56:06.853Z,988.86
2018-12-16T06:57:06.855Z,988.83
2018-12-16T06:58:06.943Z,988.82
2018-12-16T06:59:07.016Z,988.85
2018-12-16T07:00:07.102Z,988.87
2018-12-16T07:01:07.181Z,988.94
2018-12-16T07:02:07.268Z,988.93
2018-12-16T07:03:07.354Z,988.96
2018-12-16T07:04:07.439Z,989.00
2018-12-16T07:05:07.525Z,989.03
2018-12-16T07:06:07.609Z,989.04
2018-12-16T07:07:07.693Z,989.03
2018-12-16T07:08:07.778Z,989.00
2018-12-16T07:09:07.860Z,988.96
2018-12-16T07:10:07.942Z,988.95
2018-12-16T07:11:08.028Z,988.92
2018-12-16T07:12:08.112Z,988.94
2018-12-16T07:13:08.217Z,988.93
2018-12-16T07:14:08.286Z,988.93
2018-12-16T07:15:08.371Z,988.90
2018-12-16T07:16:08.478Z,988.89
2018-12-16T07:17:08.584Z,988.93
2018-12-16T07:18:08.630Z,988.91
2018-12-16T07:19:08.718Z,988.94
2018-12-16T07:20:08.798Z,989.00
2018-12-16T07:21:08.883Z,988.96
2018-12-16T07:22:08.969Z,988.93
2018-12-16T07:23:09.091Z,988.97
2018-12-16T07:24:09.585Z,988.89
2018-12-16T07:25:09.224Z,988.87
2018-12-16T07:26:09.312Z,988.79
2018-12-16T07:27:09.399Z,988.80
2018-12-16T07:28:09.487Z,988.75
2018-12-16T07:29:09.569Z,988.75
2018-12-16T07:30:09.659Z,988.75
2018-12-16T07:31:09.733Z,988.69
2018-12-16T07:32:09.819Z,988.71
2018-12-16T07:33:09.905Z,988.73
2018-12-16T07:34:10.002Z,988.74
2018-12-16T07:35:10.090Z,988.75
2018-12-16T07:36:10.179Z,988.75
2018-12-16T07:37:10.286Z,988.76
2018-12-16T07:38:10.351Z,988.73
2018-12-16T07:39:10.417Z,988.76
2018-12-16T07:40:10.510Z,988.82
2018-12-16T07:41:10.608Z,988.85
2018-12-16T07:42:10.709Z,988.86
2018-12-16T07:43:10.761Z,988.88
2018-12-16T07:44:10.856Z,988.84
2018-12-16T07:45:10.943Z,988.89
2018-12-16T07:46:11.034Z,988.89
2018-12-16T07:47:11.123Z,988.85
2018-12-16T07:48:11.210Z,988.86
2018-12-16T07:49:11.289Z,988.88
2018-12-16T07:50:11.376Z,988.95
2018-12-16T07:51:11.483Z,988.90
2018-12-16T07:52:11.545Z,988.98
2018-12-16T07:53:11.635Z,989.05
2018-12-16T07:54:16.045Z,989.08
2018-12-16T07:55:11.807Z,989.10
2018-12-16T07:56:11.893Z,989.12
2018-12-16T07:57:11.979Z,989.11
2018-12-16T07:58:12.084Z,989.12
2018-12-16T07:59:12.200Z,989.10
2018-12-16T08:00:12.245Z,989.11
2018-12-16T08:01:12.357Z,989.20
2018-12-16T08:02:12.417Z,989.15
2018-12-16T08:03:12.507Z,989.19
2018-12-16T08:04:12.593Z,989.19
2018-12-16T08:05:12.704Z,989.17
2018-12-16T08:06:12.767Z,989.14
2018-12-16T08:07:12.851Z,989.13
2018-12-16T08:08:12.938Z,989.12
2018-12-16T08:09:13.028Z,989.08
2018-12-16T08:10:13.112Z,989.09
2018-12-16T08:11:13.197Z,989.08
2018-12-16T08:12:13.303Z,989.06
2018-12-16T08:13:13.389Z,989.00
2018-12-16T08:14:13.475Z,989.03
2018-12-16T08:15:13.560Z,988.97
2018-12-16T08:16:13.648Z,988.92
2018-12-16T08:17:13.734Z,988.95
2018-12-16T08:18:13.819Z,988.96
2018-12-16T08:19:13.906Z,988.95
2018-12-16T08:20:13.994Z,989.00
2018-12-16T08:21:14.081Z,989.02
2018-12-16T08:22:14.164Z,989.03
2018-12-16T08:23:14.252Z,989.03
2018-12-16T08:24:14.340Z,989.02
2018-12-16T08:25:14.425Z,989.06
2018-12-16T08:26:14.512Z,989.07
2018-12-16T08:27:14.598Z,989.08
2018-12-16T08:28:14.684Z,989.10
2018-12-16T08:29:14.772Z,989.10
2018-12-16T08:30:14.859Z,989.12
2018-12-16T08:31:14.945Z,989.08
2018-12-16T08:32:15.031Z,989.08
2018-12-16T08:33:15.117Z,989.08
2018-12-16T08:34:15.203Z,989.09
2018-12-16T08:35:15.290Z,989.10
2018-12-16T08:36:15.375Z,989.11
2018-12-16T08:37:15.461Z,989.12
2018-12-16T08:38:15.546Z,989.16
2018-12-16T08:39:15.631Z,989.14
2018-12-16T08:40:15.717Z,989.13
2018-12-16T08:41:15.803Z,989.10
2018-12-16T08:42:15.889Z,989.13
2018-12-16T08:43:15.976Z,989.06
2018-12-16T08:44:16.060Z,989.07
2018-12-16T08:45:16.215Z,989.06
2018-12-16T08:46:16.243Z,989.11
2018-12-16T08:47:16.330Z,989.15
2018-12-16T08:48:16.404Z,989.21
2018-12-16T08:49:16.490Z,989.20
2018-12-16T08:50:16.709Z,989.20
2018-12-16T08:51:16.663Z,989.12
2018-12-16T08:52:16.749Z,989.10
2018-12-16T08:53:16.835Z,989.09
2018-12-16T08:54:16.922Z,989.14
2018-12-16T08:55:17.012Z,989.15
2018-12-16T08:56:17.097Z,989.20
2018-12-16T08:57:17.182Z,989.22
2018-12-16T08:58:17.269Z,989.22
2018-12-16T08:59:17.356Z,989.19
2018-12-16T09:00:17.442Z,989.17
2018-12-16T09:01:17.542Z,989.11
2018-12-16T09:02:17.618Z,989.02
2018-12-16T09:03:17.701Z,988.97
2018-12-16T09:04:17.792Z,989.00
2018-12-16T09:05:17.874Z,989.01
2018-12-16T09:06:17.961Z,989.04
2018-12-16T09:07:18.047Z,989.10
2018-12-16T09:08:18.139Z,989.12
2018-12-16T09:09:18.221Z,989.06
2018-12-16T09:10:18.307Z,989.10
2018-12-16T09:11:18.393Z,989.10
2018-12-16T09:12:19.463Z,989.07
2018-12-16T09:13:18.553Z,989.08
2018-12-16T09:14:18.661Z,989.07
2018-12-16T09:15:18.746Z,989.10
2018-12-16T09:16:18.832Z,989.06
2018-12-16T09:17:18.923Z,989.10
2018-12-16T09:18:19.005Z,989.10
2018-12-16T09:19:19.094Z,989.10
2018-12-16T09:20:19.179Z,989.02
2018-12-16T09:21:19.269Z,989.04
2018-12-16T09:22:19.361Z,989.05
2018-12-16T09:23:19.439Z,989.03
2018-12-16T09:24:19.528Z,989.09
2018-12-16T09:25:19.620Z,989.07
2018-12-16T09:26:19.711Z,989.06
2018-12-16T09:27:19.794Z,989.11
2018-12-16T09:28:19.881Z,989.10
2018-12-16T09:29:19.973Z,989.13
2018-12-16T09:30:20.059Z,989.20
2018-12-16T09:31:20.142Z,989.17
2018-12-16T09:32:20.231Z,989.19
2018-12-16T09:33:20.320Z,989.16
2018-12-16T09:34:20.405Z,989.17
2018-12-16T09:35:20.492Z,989.16
2018-12-16T09:36:20.579Z,989.24
2018-12-16T09:37:20.664Z,989.24
2018-12-16T09:38:20.755Z,989.26
2018-12-16T09:39:20.843Z,989.27
2018-12-16T09:40:20.929Z,989.29
2018-12-16T09:41:21.018Z,989.30
2018-12-16T09:42:21.102Z,989.28
2018-12-16T09:43:21.191Z,989.24
2018-12-16T09:44:21.278Z,989.22
2018-12-16T09:45:21.362Z,989.24
2018-12-16T09:46:21.448Z,989.20
2018-12-16T09:47:21.535Z,989.22
2018-12-16T09:48:21.621Z,989.20
2018-12-16T09:49:21.710Z,989.22
2018-12-16T09:50:21.794Z,989.16
2018-12-16T09:51:21.883Z,989.24
2018-12-16T09:52:23.658Z,989.26
2018-12-16T09:53:22.059Z,989.25
2018-12-16T09:54:22.145Z,989.26
2018-12-16T09:55:22.231Z,989.24
2018-12-16T09:56:22.310Z,989.20
2018-12-16T09:57:22.403Z,989.22
2018-12-16T09:58:22.484Z,989.23
2018-12-16T09:59:22.571Z,989.21
2018-12-16T10:00:22.662Z,989.18
2018-12-16T10:01:22.747Z,989.16
2018-12-16T10:02:22.837Z,989.14
2018-12-16T10:03:22.922Z,989.17
2018-12-16T10:04:23.018Z,989.17
2018-12-16T10:05:23.096Z,989.19
2018-12-16T10:06:23.181Z,989.19
2018-12-16T10:07:23.270Z,989.17
2018-12-16T10:08:23.345Z,989.22
2018-12-16T10:09:23.445Z,989.21
2018-12-16T10:10:23.529Z,989.16
2018-12-16T10:11:23.616Z,989.18
2018-12-16T10:12:23.708Z,989.18
2018-12-16T10:13:23.791Z,989.19
2018-12-16T10:14:23.878Z,989.18
2018-12-16T10:15:23.954Z,989.18
2018-12-16T10:16:24.037Z,989.19
2018-12-16T10:17:24.124Z,989.16
2018-12-16T10:18:24.213Z,989.16
2018-12-16T10:19:24.298Z,989.13
2018-12-16T10:20:24.386Z,989.12
2018-12-16T10:21:24.472Z,989.11
2018-12-16T10:22:24.560Z,989.09
2018-12-16T10:23:24.647Z,989.09
2018-12-16T10:24:24.736Z,989.12
2018-12-16T10:25:24.822Z,989.08
2018-12-16T10:26:24.909Z,989.11
2018-12-16T10:27:24.997Z,989.06
2018-12-16T10:28:25.085Z,989.07
2018-12-16T10:29:25.171Z,989.01
2018-12-16T10:30:25.257Z,988.99
2018-12-16T10:31:25.344Z,989.01
2018-12-16T10:32:25.449Z,988.97
2018-12-16T10:33:25.535Z,988.96
2018-12-16T10:34:25.624Z,988.90
2018-12-16T10:35:25.711Z,988.99
2018-12-16T10:36:25.796Z,988.93
2018-12-16T10:37:25.882Z,988.91
2018-12-16T10:38:25.970Z,988.91
2018-12-16T10:39:26.056Z,988.90
2018-12-16T10:40:26.146Z,988.86
2018-12-16T10:41:26.231Z,988.88
2018-12-16T10:42:26.314Z,988.84
2018-12-16T10:43:26.401Z,988.89
2018-12-16T10:44:26.488Z,988.87
2018-12-16T10:45:26.576Z,988.85
2018-12-16T10:46:26.662Z,988.88
2018-12-16T10:47:26.752Z,988.88
2018-12-16T10:48:26.835Z,988.91
2018-12-16T10:49:26.922Z,988.94
2018-12-16T10:50:27.010Z,988.90
2018-12-16T10:51:27.098Z,988.94
2018-12-16T10:52:27.186Z,988.91
2018-12-16T10:53:27.267Z,988.96
2018-12-16T10:54:27.363Z,988.95
2018-12-16T10:55:27.449Z,988.92
2018-12-16T10:56:27.535Z,988.90
2018-12-16T10:57:27.625Z,988.88
2018-12-16T10:58:27.712Z,988.88
2018-12-16T10:59:27.799Z,988.88
2018-12-16T11:00:27.885Z,988.90
2018-12-16T11:01:27.972Z,988.88
2018-12-16T11:02:28.060Z,988.84
2018-12-16T11:03:28.187Z,988.85
2018-12-16T11:04:28.233Z,988.78
2018-12-16T11:05:28.342Z,988.80
2018-12-16T11:06:28.429Z,988.76
2018-12-16T11:07:28.517Z,988.74
2018-12-16T11:08:28.603Z,988.72
2018-12-16T11:09:28.694Z,988.74
2018-12-16T11:10:28.780Z,988.73
2018-12-16T11:11:28.851Z,988.74
2018-12-16T11:12:28.941Z,988.66
2018-12-16T11:13:29.014Z,988.67
2018-12-16T11:14:29.100Z,988.63
2018-12-16T11:15:29.188Z,988.60
2018-12-16T11:16:29.274Z,988.56
2018-12-16T11:17:29.370Z,988.53
2018-12-16T11:18:29.454Z,988.51
2018-12-16T11:19:29.542Z,988.45
2018-12-16T11:20:29.629Z,988.45
2018-12-16T11:21:29.713Z,988.43
2018-12-16T11:22:29.796Z,988.44
2018-12-16T11:23:29.889Z,988.40
2018-12-16T11:24:29.976Z,988.42
2018-12-16T11:25:30.064Z,988.39
2018-12-16T11:26:30.147Z,988.35
2018-12-16T11:27:30.235Z,988.31
2018-12-16T11:28:30.317Z,988.31
2018-12-16T11:29:30.406Z,988.29
2018-12-16T11:30:30.494Z,988.28
2018-12-16T11:31:30.583Z,988.26
2018-12-16T11:32:30.666Z,988.31
2018-12-16T11:33:30.752Z,988.30
2018-12-16T11:34:30.840Z,988.33
2018-12-16T11:35:30.928Z,988.39
2018-12-16T11:36:31.014Z,988.43
2018-12-16T11:37:31.100Z,988.38
2018-12-16T11:38:31.189Z,988.40
2018-12-16T11:39:31.274Z,988.34
2018-12-16T11:40:31.362Z,988.29
2018-12-16T11:41:31.452Z,988.30
2018-12-16T11:42:31.535Z,988.25
2018-12-16T11:43:31.624Z,988.23
2018-12-16T11:44:31.711Z,988.13
2018-12-16T11:45:31.812Z,988.08
2018-12-16T11:46:31.886Z,988.08
2018-12-16T11:47:31.973Z,988.10
2018-12-16T11:48:32.061Z,988.07
2018-12-16T11:49:32.148Z,988.07
2018-12-16T11:50:32.310Z,988.07
2018-12-16T11:51:32.323Z,988.12
2018-12-16T11:52:32.414Z,988.16
2018-12-16T11:53:32.500Z,988.15
2018-12-16T11:54:32.586Z,988.13
2018-12-16T11:55:32.674Z,988.07
2018-12-16T11:56:32.762Z,988.08
2018-12-16T11:57:32.850Z,988.05
2018-12-16T11:58:32.938Z,988.09
2018-12-16T11:59:33.025Z,988.07
2018-12-16T12:00:33.109Z,988.09
2018-12-16T12:01:33.198Z,988.05
2018-12-16T12:02:33.284Z,988.07
2018-12-16T12:03:33.375Z,988.06
2018-12-16T12:04:33.460Z,988.02
2018-12-16T12:05:33.547Z,988.04
2018-12-16T12:06:33.655Z,988.07
2018-12-16T12:07:33.740Z,988.07
2018-12-16T12:08:33.828Z,988.03
2018-12-16T12:09:33.914Z,988.03
2018-12-16T12:10:34.001Z,988.04
2018-12-16T12:11:34.088Z,988.11
2018-12-16T12:12:34.177Z,988.13
2018-12-16T12:13:34.266Z,988.12
2018-12-16T12:14:34.350Z,988.12
2018-12-16T12:15:34.436Z,988.12
2018-12-16T12:16:34.525Z,988.11
2018-12-16T12:17:34.596Z,988.13
2018-12-16T12:18:34.712Z,988.09
2018-12-16T12:19:34.771Z,988.10
2018-12-16T12:20:34.861Z,988.09
2018-12-16T12:21:34.943Z,988.05
2018-12-16T12:22:35.032Z,988.09
2018-12-16T12:23:35.117Z,988.01
2018-12-16T12:24:35.205Z,988.01
2018-12-16T12:25:35.300Z,988.03
2018-12-16T12:26:35.382Z,987.99
2018-12-16T12:27:35.468Z,987.99
2018-12-16T12:28:35.555Z,987.98
2018-12-16T12:29:35.644Z,987.99